createdAt,value
2019-03-15T00:02:49.471Z,3.60
2019-03-15T00:10:39.609Z,10.83
2019-03-15T00:15:42.180Z,5.13
2019-03-15T00:18:10.678Z,12.37
2019-03-15T00:20:39.103Z,11.17
2019-03-15T00:23:07.530Z,5.60
2019-03-15T00:25:35.990Z,8.43
2019-03-15T00:28:04.417Z,7.50
2019-03-15T00:30:52.265Z,2.00
2019-03-15T00:33:20.702Z,16.50
2019-03-15T00:38:42.347Z,12.13
2019-03-15T00:41:11.097Z,7.77
2019-03-15T00:46:15.425Z,6.30
2019-03-15T00:48:43.933Z,11.10
2019-03-15T00:51:12.364Z,11.33
2019-03-15T00:53:40.789Z,9.40
2019-03-15T00:56:09.245Z,11.83
2019-03-15T00:58:37.756Z,5.50
2019-03-15T01:01:06.177Z,4.20
2019-03-15T01:06:08.334Z,4.73
2019-03-15T01:08:36.756Z,7.63
2019-03-15T01:11:24.560Z,7.37
2019-03-15T01:13:52.985Z,8.33
2019-03-15T01:16:21.414Z,6.10
2019-03-15T01:18:49.868Z,9.50
2019-03-15T01:21:18.294Z,2.43
2019-03-15T01:23:46.723Z,9.00
2019-03-15T01:26:15.173Z,8.27
2019-03-15T01:29:02.856Z,4.10
2019-03-15T01:31:31.311Z,7.87
2019-03-15T01:33:59.744Z,7.30
2019-03-15T01:36:28.152Z,2.80
2019-03-15T01:41:30.911Z,7.43
2019-03-15T01:43:59.362Z,10.27
2019-03-15T01:46:27.812Z,3.87
2019-03-15T01:49:15.559Z,4.77
2019-03-15T01:54:18.325Z,7.87
2019-03-15T01:59:40.012Z,1.63
2019-03-15T02:04:42.633Z,11.53
2019-03-15T02:09:45.098Z,8.60
2019-03-15T02:12:13.564Z,4.47
2019-03-15T02:14:41.989Z,2.23
2019-03-15T02:17:10.419Z,5.40
2019-03-15T02:19:38.897Z,7.33
2019-03-15T02:22:08.398Z,16.73
2019-03-15T02:24:37.491Z,9.03
2019-03-15T02:27:05.941Z,9.10
2019-03-15T02:29:34.368Z,5.80
2019-03-15T02:32:02.789Z,6.43
2019-03-15T02:37:06.954Z,5.40
2019-03-15T02:42:10.061Z,6.30
2019-03-15T02:44:39.180Z,11.00
2019-03-15T02:47:08.816Z,3.20
2019-03-15T02:49:37.246Z,4.00
2019-03-15T02:52:05.673Z,15.60
2019-03-15T02:54:34.136Z,5.50
2019-03-15T02:57:02.561Z,6.37
2019-03-15T02:59:30.981Z,5.87
2019-03-15T03:02:00.683Z,7.13
2019-03-15T03:04:29.338Z,8.43
2019-03-15T03:06:57.769Z,4.70
2019-03-15T03:09:26.413Z,9.43
2019-03-15T03:11:54.828Z,3.70
2019-03-15T03:14:23.261Z,5.80
2019-03-15T03:16:51.712Z,9.60
2019-03-15T03:19:20.137Z,3.30
2019-03-15T03:21:48.597Z,4.70
2019-03-15T03:24:17.403Z,9.80
2019-03-15T03:26:45.845Z,11.43
2019-03-15T03:29:14.266Z,8.27
2019-03-15T03:31:44.236Z,9.33
2019-03-15T03:34:13.346Z,6.23
2019-03-15T03:36:41.787Z,5.83
2019-03-15T03:39:10.269Z,8.13
2019-03-15T03:41:38.708Z,10.80
2019-03-15T03:44:07.116Z,9.67
2019-03-15T03:46:35.599Z,7.87
2019-03-15T03:49:04.025Z,4.50
2019-03-15T03:51:32.450Z,3.73
2019-03-15T03:54:01.110Z,5.80
2019-03-15T03:56:29.533Z,6.40
2019-03-15T03:58:58.027Z,5.03
2019-03-15T04:01:27.284Z,3.67
2019-03-15T04:03:55.782Z,1.60
2019-03-15T04:06:24.235Z,9.20
2019-03-15T04:08:52.796Z,9.80
2019-03-15T04:11:21.278Z,4.87
2019-03-15T04:13:49.649Z,9.83
2019-03-15T04:16:18.259Z,5.33
2019-03-15T04:18:46.700Z,8.37
2019-03-15T04:21:15.132Z,14.10
2019-03-15T04:23:43.703Z,10.33
2019-03-15T04:26:12.134Z,9.60
2019-03-15T04:28:40.561Z,12.60
2019-03-15T04:31:09.034Z,5.27
2019-03-15T04:33:37.475Z,10.30
2019-03-15T04:36:05.896Z,6.80
2019-03-15T04:38:34.489Z,9.50
2019-03-15T04:41:02.932Z,10.80
2019-03-15T04:43:31.358Z,7.10
2019-03-15T04:45:59.894Z,7.97
2019-03-15T04:48:28.331Z,10.87
2019-03-15T04:50:56.756Z,7.50
2019-03-15T04:53:25.209Z,8.17
2019-03-15T04:55:53.639Z,13.57
2019-03-15T04:58:22.074Z,12.63
2019-03-15T05:00:50.620Z,15.53
2019-03-15T05:03:19.056Z,7.37
2019-03-15T05:05:47.491Z,13.80
2019-03-15T05:08:16.020Z,10.83
2019-03-15T05:10:44.456Z,6.40
2019-03-15T05:13:12.898Z,10.03
2019-03-15T05:15:41.509Z,10.33
2019-03-15T05:18:09.965Z,11.87
2019-03-15T05:20:38.398Z,14.03
2019-03-15T05:23:07.271Z,7.83
2019-03-15T05:25:35.704Z,6.60
2019-03-15T05:28:04.131Z,10.23
2019-03-15T05:30:32.594Z,8.80
2019-03-15T05:33:01.024Z,9.80
2019-03-15T05:35:29.463Z,7.83
2019-03-15T05:37:57.939Z,14.13
2019-03-15T05:40:26.366Z,13.07
2019-03-15T05:42:54.820Z,17.07
2019-03-15T05:45:23.314Z,6.17
2019-03-15T05:47:51.748Z,10.30
2019-03-15T05:50:20.194Z,7.40
2019-03-15T05:52:48.896Z,10.73
2019-03-15T05:55:17.334Z,13.93
2019-03-15T05:57:45.764Z,14.00
2019-03-15T06:00:15.605Z,17.83
2019-03-15T06:02:44.045Z,9.70
2019-03-15T06:05:12.809Z,14.47
2019-03-15T06:07:41.450Z,14.40
2019-03-15T06:10:11.825Z,8.40
2019-03-15T06:12:40.260Z,17.53
2019-03-15T06:15:10.765Z,13.33
2019-03-15T06:17:39.199Z,10.63
2019-03-15T06:20:11.940Z,15.50
2019-03-15T06:22:40.420Z,12.80
2019-03-15T06:25:11.022Z,20.00
2019-03-15T06:27:39.466Z,20.63
2019-03-15T06:30:11.182Z,15.40
2019-03-15T06:32:39.623Z,15.23
2019-03-15T06:35:10.522Z,22.23
2019-03-15T06:37:39.315Z,16.40
2019-03-15T06:40:09.473Z,9.27
2019-03-15T06:42:37.907Z,20.30
2019-03-15T06:45:14.256Z,26.67
2019-03-15T06:47:42.711Z,10.03
2019-03-15T06:50:11.297Z,17.77
2019-03-15T06:52:39.762Z,12.00
2019-03-15T06:55:09.564Z,5.13
2019-03-15T06:57:38.064Z,8.07
2019-03-15T07:00:14.925Z,16.30
2019-03-15T07:02:43.708Z,15.03
2019-03-15T07:05:12.708Z,9.77
2019-03-15T07:07:41.219Z,16.20
2019-03-15T07:10:10.897Z,15.10
2019-03-15T07:12:40.366Z,21.73
2019-03-15T07:15:11.352Z,17.07
2019-03-15T07:17:39.880Z,9.83
2019-03-15T07:20:18.196Z,8.50
2019-03-15T07:22:46.802Z,9.23
2019-03-15T07:25:15.304Z,10.50
2019-03-15T07:27:43.774Z,8.30
2019-03-15T07:30:14.146Z,13.73
2019-03-15T07:32:42.610Z,5.27
2019-03-15T07:35:11.051Z,12.67
2019-03-15T07:37:39.487Z,18.73
2019-03-15T07:40:09.991Z,9.33
2019-03-15T07:42:38.472Z,6.43
2019-03-15T07:45:09.437Z,5.53
2019-03-15T07:47:37.865Z,7.50
2019-03-15T07:50:09.568Z,9.93
2019-03-15T07:52:38.001Z,8.40
2019-03-15T07:55:08.375Z,8.90
2019-03-15T07:57:36.860Z,4.50
2019-03-15T08:00:15.623Z,9.77
2019-03-15T08:02:44.078Z,4.57
2019-03-15T08:05:12.642Z,3.80
2019-03-15T08:07:45.350Z,3.83
2019-03-15T08:10:12.693Z,7.97
2019-03-15T08:12:41.358Z,9.93
2019-03-15T08:15:12.199Z,6.60
2019-03-15T08:17:40.821Z,5.37
2019-03-15T08:20:13.603Z,5.63
2019-03-15T08:22:42.104Z,3.33
2019-03-15T08:25:11.744Z,3.97
2019-03-15T08:27:40.231Z,6.80
2019-03-15T08:30:13.761Z,7.47
2019-03-15T08:32:43.975Z,8.40
2019-03-15T08:35:13.196Z,4.30
2019-03-15T08:37:41.802Z,2.43
2019-03-15T08:40:14.998Z,2.90
2019-03-15T08:42:43.419Z,2.70
2019-03-15T08:45:22.778Z,1.47
2019-03-15T08:47:51.216Z,3.27
2019-03-15T08:50:59.888Z,1.47
2019-03-15T08:53:28.313Z,3.30
2019-03-15T08:55:56.752Z,1.00
2019-03-15T08:58:25.209Z,1.30
2019-03-15T09:00:53.636Z,1.67
2019-03-15T09:03:27.828Z,2.57
2019-03-15T09:05:52.269Z,3.80
2019-03-15T09:08:20.693Z,2.60
2019-03-15T09:10:49.121Z,2.40
2019-03-15T09:13:17.623Z,0.90
2019-03-15T09:15:46.050Z,4.87
2019-03-15T09:18:14.478Z,2.03
2019-03-15T09:23:16.733Z,1.30
2019-03-15T09:25:45.166Z,2.00
2019-03-15T09:30:47.294Z,0.60
2019-03-15T09:33:15.732Z,2.57
2019-03-15T09:35:44.195Z,0.60
2019-03-15T09:41:08.196Z,0.50
2019-03-15T09:43:36.626Z,0.70
2019-03-15T09:46:05.065Z,1.07
2019-03-15T09:51:07.852Z,1.20
2019-03-15T09:56:09.904Z,0.80
2019-03-15T09:58:38.338Z,1.13
2019-03-15T10:04:19.950Z,0.40
2019-03-15T10:09:45.873Z,0.53
2019-03-15T10:17:22.969Z,1.50
2019-03-15T10:20:12.364Z,0.40
2019-03-15T10:23:05.933Z,0.40
2019-03-15T10:25:28.881Z,0.40
2019-03-15T10:27:57.312Z,0.40
2019-03-15T10:30:25.868Z,0.40
2019-03-15T10:32:54.297Z,0.30
2019-03-15T10:35:22.726Z,0.50
2019-03-15T10:38:10.434Z,1.00
2019-03-15T10:40:38.862Z,0.40
2019-03-15T10:43:07.295Z,0.80
2019-03-15T10:45:35.754Z,1.07
2019-03-15T10:51:12.274Z,2.27
2019-03-15T10:53:40.705Z,1.80
2019-03-15T10:56:09.154Z,1.50
2019-03-15T10:58:37.617Z,4.10
2019-03-15T11:01:25.235Z,1.77
2019-03-15T11:03:53.723Z,1.23
2019-03-15T11:06:22.150Z,1.13
2019-03-15T11:08:50.578Z,0.73
2019-03-15T11:13:55.657Z,2.03
2019-03-15T11:19:16.697Z,0.50
2019-03-15T11:21:45.179Z,0.60
2019-03-15T11:24:13.609Z,0.40
2019-03-15T11:26:42.069Z,0.30
2019-03-15T11:29:10.550Z,0.43
2019-03-15T11:31:38.978Z,1.57
2019-03-15T11:34:26.707Z,2.23
2019-03-15T11:36:58.541Z,0.80
2019-03-15T11:39:44.525Z,0.50
2019-03-15T11:42:15.015Z,0.57
2019-03-15T11:45:02.955Z,0.43
2019-03-15T11:48:03.382Z,0.50
2019-03-15T11:51:00.593Z,0.37
2019-03-15T11:53:29.021Z,0.40
2019-03-15T11:55:57.451Z,0.70
2019-03-15T11:58:25.930Z,0.60
2019-03-15T12:01:13.507Z,0.40
2019-03-15T12:06:16.530Z,0.40
2019-03-15T12:08:44.994Z,1.03
2019-03-15T12:11:13.422Z,0.40
2019-03-15T12:13:41.849Z,0.40
2019-03-15T12:16:10.330Z,1.07
2019-03-15T12:18:38.757Z,0.30
2019-03-15T12:21:26.414Z,0.40
2019-03-15T12:23:54.833Z,0.30
2019-03-15T12:26:23.264Z,0.30
2019-03-15T12:28:51.722Z,0.40
2019-03-15T12:31:20.154Z,0.50
2019-03-15T12:34:07.806Z,1.20
2019-03-15T12:36:36.238Z,7.60
2019-03-15T12:39:44.642Z,0.40
2019-03-15T12:42:32.391Z,0.40
2019-03-15T12:45:00.876Z,0.50
2019-03-15T12:47:29.304Z,0.40
2019-03-15T12:49:57.738Z,0.40
2019-03-15T12:52:26.248Z,0.33
2019-03-15T12:54:54.677Z,0.93
2019-03-15T13:44:22.407Z,0.50
2019-03-15T13:46:50.849Z,0.63
2019-03-15T13:49:19.283Z,0.30
2019-03-15T13:54:21.345Z,0.53
2019-03-15T13:56:49.829Z,0.40
2019-03-15T13:59:18.268Z,0.70
2019-03-15T14:01:53.809Z,3.70
2019-03-15T14:06:56.269Z,0.60
2019-03-15T14:09:24.703Z,0.40
2019-03-15T14:11:53.203Z,0.77
2019-03-15T14:14:21.647Z,3.30
2019-03-15T14:16:50.085Z,0.30
2019-03-15T14:21:52.489Z,0.40
2019-03-15T14:24:22.821Z,0.70
2019-03-15T14:26:51.211Z,0.40
2019-03-15T14:30:17.428Z,0.60
2019-03-15T14:32:45.879Z,0.50
2019-03-15T14:35:33.486Z,0.60
2019-03-15T14:41:47.124Z,0.40
2019-03-15T14:49:01.882Z,0.87
2019-03-15T14:51:30.347Z,0.40
2019-03-15T14:53:58.900Z,0.47
2019-03-15T14:56:27.616Z,0.40
2019-03-15T14:58:56.080Z,0.30
2019-03-15T15:01:24.528Z,0.40
2019-03-15T15:03:53.100Z,0.37
2019-03-15T15:06:21.614Z,0.40
2019-03-15T15:08:50.060Z,0.50
2019-03-15T15:11:18.941Z,0.40
2019-03-15T15:13:47.479Z,0.43
2019-03-15T15:16:15.926Z,0.40
2019-03-15T15:18:44.576Z,0.47
2019-03-15T15:21:13.042Z,0.50
2019-03-15T15:23:41.484Z,0.50
2019-03-15T15:26:09.977Z,0.30
2019-03-15T15:28:38.424Z,0.60
2019-03-15T15:31:06.899Z,0.40
2019-03-15T15:33:35.569Z,0.40
2019-03-15T15:36:04.169Z,0.70
2019-03-15T15:38:32.613Z,0.50
2019-03-15T15:41:01.130Z,0.40
2019-03-15T15:43:29.596Z,0.50
2019-03-15T15:45:58.047Z,0.40
2019-03-15T15:48:26.955Z,0.63
2019-03-15T15:50:55.466Z,0.40
2019-03-15T15:56:52.493Z,0.60
2019-03-15T15:59:20.940Z,0.40
2019-03-15T16:02:14.549Z,0.43
2019-03-15T16:04:43.002Z,0.40
2019-03-15T16:07:11.517Z,0.40
2019-03-15T16:09:40.000Z,0.40
2019-03-15T16:12:08.457Z,0.50
2019-03-15T16:14:36.926Z,0.53
2019-03-15T16:17:05.401Z,0.40
2019-03-15T16:19:33.854Z,0.30
2019-03-15T16:22:02.323Z,0.60
2019-03-15T16:24:30.849Z,0.67
2019-03-15T16:26:59.302Z,0.93
2019-03-15T16:29:27.756Z,0.50
2019-03-15T16:31:56.246Z,3.10
2019-03-15T16:34:24.695Z,1.43
2019-03-15T16:36:53.177Z,0.77
2019-03-15T16:39:21.694Z,0.37
2019-03-15T16:41:50.146Z,0.60
2019-03-15T16:44:18.592Z,0.53
2019-03-15T16:46:47.211Z,0.50
2019-03-15T16:49:15.661Z,0.80
2019-03-15T16:51:44.110Z,0.80
2019-03-15T16:54:13.083Z,1.60
2019-03-15T16:56:41.552Z,0.50
2019-03-15T16:59:10.003Z,1.10
2019-03-15T17:01:38.561Z,0.40
2019-03-15T17:04:07.010Z,0.40
2019-03-15T17:06:35.486Z,0.60
2019-03-15T17:09:04.438Z,0.40
2019-03-15T17:11:32.885Z,0.47
2019-03-15T17:14:01.339Z,0.40
2019-03-15T17:16:30.222Z,0.40
2019-03-15T17:18:58.787Z,0.57
2019-03-15T17:21:27.221Z,0.53
2019-03-15T17:23:55.764Z,0.50
2019-03-15T17:26:24.280Z,1.43
2019-03-15T17:28:58.635Z,0.90
2019-03-15T17:31:22.938Z,0.50
2019-03-15T17:33:51.386Z,0.60
2019-03-15T17:36:19.834Z,0.50
2019-03-15T17:38:48.699Z,0.40
2019-03-15T17:41:17.146Z,0.40
2019-03-15T17:43:45.598Z,0.53
2019-03-15T17:46:14.247Z,0.40
2019-03-15T17:48:42.800Z,0.50
2019-03-15T17:51:11.264Z,0.67
2019-03-15T17:53:40.411Z,0.40
2019-03-15T17:56:08.924Z,0.40
2019-03-15T17:58:37.755Z,1.43
2019-03-15T18:01:06.382Z,0.70
2019-03-15T18:03:34.831Z,0.90
2019-03-15T18:06:03.277Z,0.93
2019-03-15T18:08:31.762Z,0.70
2019-03-15T18:11:00.206Z,0.60
2019-03-15T18:13:28.661Z,0.87
2019-03-15T18:15:57.154Z,0.50
2019-03-15T18:18:25.596Z,0.50
2019-03-15T18:20:54.045Z,0.70
2019-03-15T18:23:22.550Z,0.40
2019-03-15T18:25:51.079Z,0.70
2019-03-15T18:28:19.525Z,0.40
2019-03-15T18:30:48.345Z,5.33
2019-03-15T18:33:16.832Z,0.40
2019-03-15T18:35:45.340Z,0.50
2019-03-15T18:38:13.990Z,0.60
2019-03-15T18:40:42.441Z,0.40
2019-03-15T18:43:10.888Z,0.40
2019-03-15T18:45:39.377Z,1.47
2019-03-15T18:48:07.909Z,0.40
2019-03-15T18:50:36.443Z,0.70
2019-03-15T18:53:05.182Z,0.40
2019-03-15T18:55:33.629Z,0.37
2019-03-15T18:58:02.081Z,0.90
2019-03-15T19:00:30.636Z,0.70
2019-03-15T19:03:00.146Z,0.50
2019-03-15T19:05:28.815Z,0.77
2019-03-15T19:07:57.301Z,7.40
2019-03-15T19:10:25.756Z,0.60
2019-03-15T19:12:54.203Z,0.50
2019-03-15T19:15:22.824Z,0.53
2019-03-15T19:17:51.442Z,0.50
2019-03-15T19:20:20.015Z,0.40
2019-03-15T19:22:48.610Z,0.50
2019-03-15T19:25:17.203Z,0.63
2019-03-15T19:27:45.802Z,0.50
2019-03-15T19:30:19.131Z,0.40
2019-03-15T19:32:47.571Z,1.03
2019-03-15T19:35:16.101Z,2.10
2019-03-15T19:37:44.597Z,0.60
2019-03-15T19:40:15.354Z,0.50
2019-03-15T19:42:45.445Z,2.83
2019-03-15T19:45:17.951Z,0.77
2019-03-15T19:47:46.463Z,0.50
2019-03-15T19:50:20.075Z,1.57
2019-03-15T19:52:48.634Z,0.50
2019-03-15T19:55:17.532Z,0.67
2019-03-15T19:57:46.090Z,0.40
2019-03-15T20:00:16.273Z,1.13
2019-03-15T20:02:44.789Z,0.90
2019-03-15T20:05:13.577Z,0.43
2019-03-15T20:07:42.219Z,0.40
2019-03-15T20:10:16.882Z,0.40
2019-03-15T20:12:45.620Z,0.80
2019-03-15T20:15:15.612Z,0.50
2019-03-15T20:17:44.136Z,0.70
2019-03-15T20:20:14.017Z,0.40
2019-03-15T20:22:42.876Z,0.40
2019-03-15T20:25:12.907Z,0.60
2019-03-15T20:27:41.361Z,0.70
2019-03-15T20:30:25.960Z,0.70
2019-03-15T20:32:50.395Z,0.50
2019-03-15T20:35:18.913Z,0.97
2019-03-15T20:37:47.827Z,0.40
2019-03-15T20:40:16.345Z,0.50
2019-03-15T20:42:44.797Z,1.70
2019-03-15T20:45:21.644Z,1.53
2019-03-15T20:47:50.284Z,0.53
2019-03-15T20:50:18.786Z,0.40
2019-03-15T20:52:47.312Z,1.17
2019-03-15T20:55:35.155Z,0.57
2019-03-15T21:00:38.133Z,0.40
2019-03-15T21:03:06.622Z,0.40
2019-03-15T21:05:35.072Z,0.40
2019-03-15T21:08:22.718Z,0.43
2019-03-15T21:10:51.663Z,0.70
2019-03-15T21:13:21.324Z,0.50
2019-03-15T21:18:23.730Z,0.70
2019-03-15T21:21:11.468Z,0.80
2019-03-15T21:23:39.913Z,0.87
2019-03-15T21:26:08.365Z,0.80
2019-03-15T21:28:36.854Z,2.10
2019-03-15T21:31:05.300Z,1.00
2019-03-15T21:33:33.757Z,0.83
2019-03-15T21:36:21.557Z,0.80
2019-03-15T21:38:50.010Z,1.10
2019-03-15T21:41:18.461Z,2.63
2019-03-15T21:46:21.057Z,1.37
2019-03-15T21:48:49.506Z,0.90
2019-03-15T21:51:17.987Z,2.50
2019-03-15T21:53:46.444Z,1.53
2019-03-15T21:56:14.894Z,0.73
2019-03-15T21:58:43.374Z,2.57
2019-03-15T22:01:11.836Z,0.97
2019-03-15T22:03:40.272Z,0.87
2019-03-15T22:06:27.969Z,1.00
2019-03-15T22:08:56.419Z,1.03
2019-03-15T22:11:24.865Z,1.00
2019-03-15T22:16:27.013Z,0.40
2019-03-15T22:18:55.465Z,0.40
2019-03-15T22:24:17.665Z,0.40
2019-03-15T22:26:46.150Z,2.00
2019-03-15T22:29:14.598Z,0.60
2019-03-15T22:32:02.638Z,0.47
2019-03-15T22:34:31.084Z,0.83
2019-03-15T22:36:59.533Z,0.50
2019-03-15T22:42:01.967Z,0.50
2019-03-15T22:44:30.452Z,0.60
2019-03-15T22:46:58.910Z,4.53
2019-03-15T22:49:27.375Z,1.57
2019-03-15T22:54:29.489Z,0.40
2019-03-15T22:59:31.977Z,0.53
2019-03-15T23:02:00.438Z,0.37
2019-03-15T23:07:03.236Z,0.40
2019-03-15T23:09:51.131Z,0.40
2019-03-15T23:12:19.576Z,0.40
2019-03-15T23:14:48.029Z,0.40
2019-03-15T23:17:16.527Z,0.40
2019-03-15T23:19:45.000Z,0.40
2019-03-15T23:22:13.450Z,0.40
2019-03-15T23:24:41.933Z,0.50
2019-03-15T23:27:10.382Z,0.43
2019-03-15T23:29:38.830Z,0.40
2019-03-15T23:34:40.833Z,0.40
2019-03-15T23:37:09.281Z,0.80
2019-03-15T23:42:11.988Z,1.10
2019-03-15T23:47:34.006Z,0.90
2019-03-15T23:52:36.426Z,4.60
2019-03-15T23:55:44.933Z,0.90
2019-03-15T23:58:13.380Z,0.70
